sensor_id;sensor_type;location;lat;lon;timestamp;temperature;humidity
29577;DHT22;16509;53.862;10.672;2023-08-06T00:01:48;16.60;99.90
29577;DHT22;16509;53.862;10.672;2023-08-06T00:04:13;18.80;99.90
29577;DHT22;16509;53.862;10.672;2023-08-06T00:06:39;16.40;99.90
29577;DHT22;16509;53.862;10.672;2023-08-06T00:09:05;16.40;99.90
29577;DHT22;16509;53.862;10.672;2023-08-06T00:11:30;18.60;99.90
29577;DHT22;16509;53.862;10.672;2023-08-06T00:13:56;16.70;99.90
29577;DHT22;16509;53.862;10.672;2023-08-06T00:16:21;16.30;99.90
29577;DHT22;16509;53.862;10.672;2023-08-06T00:18:47;16.30;99.90
29577;DHT22;16509;53.862;10.672;2023-08-06T00:21:12;16.70;99.90
29577;DHT22;16509;53.862;10.672;2023-08-06T00:23:38;16.20;99.90
29577;DHT22;16509;53.862;10.672;2023-08-06T00:26:04;16.20;99.90
29577;DHT22;16509;53.862;10.672;2023-08-06T00:28:29;16.40;99.90
29577;DHT22;16509;53.862;10.672;2023-08-06T00:30:56;16.10;99.90
29577;DHT22;16509;53.862;10.672;2023-08-06T00:33:22;16.10;99.90
29577;DHT22;16509;53.862;10.672;2023-08-06T00:35:48;16.30;99.90
29577;DHT22;16509;53.862;10.672;2023-08-06T00:38:13;17.60;99.90
29577;DHT22;16509;53.862;10.672;2023-08-06T00:40:39;16.00;99.90
29577;DHT22;16509;53.862;10.672;2023-08-06T00:43:04;15.90;99.90
29577;DHT22;16509;53.862;10.672;2023-08-06T00:45:30;16.90;99.90
29577;DHT22;16509;53.862;10.672;2023-08-06T00:47:58;15.90;99.90
29577;DHT22;16509;53.862;10.672;2023-08-06T00:50:25;15.90;99.90
29577;DHT22;16509;53.862;10.672;2023-08-06T00:52:50;15.80;99.90
29577;DHT22;16509;53.862;10.672;2023-08-06T00:55:16;15.70;99.90
29577;DHT22;16509;53.862;10.672;2023-08-06T00:57:42;15.60;99.90
29577;DHT22;16509;53.862;10.672;2023-08-06T01:00:08;15.70;99.90
29577;DHT22;16509;53.862;10.672;2023-08-06T01:02:33;15.60;99.90
29577;DHT22;16509;53.862;10.672;2023-08-06T01:04:59;15.90;99.90
29577;DHT22;16509;53.862;10.672;2023-08-06T01:13:36;15.70;99.90
29577;DHT22;16509;53.862;10.672;2023-08-06T01:16:03;15.70;99.90
29577;DHT22;16509;53.862;10.672;2023-08-06T01:18:31;15.90;99.90
29577;DHT22;16509;53.862;10.672;2023-08-06T01:20:57;17.90;99.90
29577;DHT22;16509;53.862;10.672;2023-08-06T01:23:22;15.70;99.90
29577;DHT22;16509;53.862;10.672;2023-08-06T01:29:05;15.70;99.90
29577;DHT22;16509;53.862;10.672;2023-08-06T01:31:35;15.80;99.90
29577;DHT22;16509;53.862;10.672;2023-08-06T01:34:03;15.70;99.90
29577;DHT22;16509;53.862;10.672;2023-08-06T01:36:30;15.80;99.90
29577;DHT22;16509;53.862;10.672;2023-08-06T01:38:56;15.80;99.90
29577;DHT22;16509;53.862;10.672;2023-08-06T01:41:22;15.80;99.90
29577;DHT22;16509;53.862;10.672;2023-08-06T01:43:48;15.80;99.90
29577;DHT22;16509;53.862;10.672;2023-08-06T01:46:14;17.20;99.90
29577;DHT22;16509;53.862;10.672;2023-08-06T01:48:39;15.80;99.90
29577;DHT22;16509;53.862;10.672;2023-08-06T01:51:05;15.80;99.90
29577;DHT22;16509;53.862;10.672;2023-08-06T01:53:31;15.80;99.90
29577;DHT22;16509;53.862;10.672;2023-08-06T01:55:57;15.80;99.90
29577;DHT22;16509;53.862;10.672;2023-08-06T01:58:23;15.80;99.90
29577;DHT22;16509;53.862;10.672;2023-08-06T02:00:48;15.80;99.90
29577;DHT22;16509;53.862;10.672;2023-08-06T02:03:14;15.80;99.90
29577;DHT22;16509;53.862;10.672;2023-08-06T02:05:40;15.80;99.90
29577;DHT22;16509;53.862;10.672;2023-08-06T02:08:05;15.80;99.90
29577;DHT22;16509;53.862;10.672;2023-08-06T02:10:31;17.80;99.90
29577;DHT22;16509;53.862;10.672;2023-08-06T02:12:56;16.80;99.90
29577;DHT22;16509;53.862;10.672;2023-08-06T02:15:22;15.70;99.90
29577;DHT22;16509;53.862;10.672;2023-08-06T02:17:47;15.70;99.90
29577;DHT22;16509;53.862;10.672;2023-08-06T02:20:13;15.70;99.90
29577;DHT22;16509;53.862;10.672;2023-08-06T02:22:38;15.80;99.90
29577;DHT22;16509;53.862;10.672;2023-08-06T02:25:04;16.00;99.90
29577;DHT22;16509;53.862;10.672;2023-08-06T02:27:30;15.70;99.90
29577;DHT22;16509;53.862;10.672;2023-08-06T02:29:55;15.70;99.90
29577;DHT22;16509;53.862;10.672;2023-08-06T02:32:21;15.70;99.90
29577;DHT22;16509;53.862;10.672;2023-08-06T02:34:47;15.70;99.90
29577;DHT22;16509;53.862;10.672;2023-08-06T02:37:12;15.80;99.90
29577;DHT22;16509;53.862;10.672;2023-08-06T02:39:38;15.70;99.90
29577;DHT22;16509;53.862;10.672;2023-08-06T02:42:06;15.70;99.90
29577;DHT22;16509;53.862;10.672;2023-08-06T02:44:33;15.70;99.90
29577;DHT22;16509;53.862;10.672;2023-08-06T02:49:25;16.80;99.90
29577;DHT22;16509;53.862;10.672;2023-08-06T02:52:00;15.90;99.90
29577;DHT22;16509;53.862;10.672;2023-08-06T02:54:25;17.10;99.90
29577;DHT22;16509;53.862;10.672;2023-08-06T02:56:51;15.80;99.90
29577;DHT22;16509;53.862;10.672;2023-08-06T02:59:16;16.70;99.90
29577;DHT22;16509;53.862;10.672;2023-08-06T03:01:42;17.50;99.90
29577;DHT22;16509;53.862;10.672;2023-08-06T03:04:07;15.90;99.90
29577;DHT22;16509;53.862;10.672;2023-08-06T03:06:33;17.00;99.90
29577;DHT22;16509;53.862;10.672;2023-08-06T03:08:58;16.30;99.90
29577;DHT22;16509;53.862;10.672;2023-08-06T03:11:24;15.70;99.90
29577;DHT22;16509;53.862;10.672;2023-08-06T03:13:49;16.80;99.90
29577;DHT22;16509;53.862;10.672;2023-08-06T03:16:15;15.80;99.90
29577;DHT22;16509;53.862;10.672;2023-08-06T03:18:41;15.90;99.90
29577;DHT22;16509;53.862;10.672;2023-08-06T03:21:06;15.80;99.90
29577;DHT22;16509;53.862;10.672;2023-08-06T03:23:32;15.70;99.90
29577;DHT22;16509;53.862;10.672;2023-08-06T03:26:01;16.40;99.90
29577;DHT22;16509;53.862;10.672;2023-08-06T03:28:28;16.10;99.90
29577;DHT22;16509;53.862;10.672;2023-08-06T03:31:01;15.60;99.90
29577;DHT22;16509;53.862;10.672;2023-08-06T03:33:27;15.70;99.90
29577;DHT22;16509;53.862;10.672;2023-08-06T03:35:52;15.70;99.90
29577;DHT22;16509;53.862;10.672;2023-08-06T03:38:18;16.80;99.90
29577;DHT22;16509;53.862;10.672;2023-08-06T03:40:43;17.20;99.90
29577;DHT22;16509;53.862;10.672;2023-08-06T03:43:08;16.60;99.90
29577;DHT22;16509;53.862;10.672;2023-08-06T03:45:34;15.70;99.90
29577;DHT22;16509;53.862;10.672;2023-08-06T03:47:59;16.10;99.90
29577;DHT22;16509;53.862;10.672;2023-08-06T03:50:25;16.40;99.90
29577;DHT22;16509;53.862;10.672;2023-08-06T03:52:50;15.60;99.90
29577;DHT22;16509;53.862;10.672;2023-08-06T03:55:16;17.10;99.90
29577;DHT22;16509;53.862;10.672;2023-08-06T03:57:42;16.40;99.90
29577;DHT22;16509;53.862;10.672;2023-08-06T04:00:07;17.30;99.90
29577;DHT22;16509;53.862;10.672;2023-08-06T04:02:33;15.80;99.90
29577;DHT22;16509;53.862;10.672;2023-08-06T04:05:00;15.70;99.90
29577;DHT22;16509;53.862;10.672;2023-08-06T04:07:25;16.40;99.90
29577;DHT22;16509;53.862;10.672;2023-08-06T04:10:02;16.20;99.90
29577;DHT22;16509;53.862;10.672;2023-08-06T04:12:28;16.10;99.90
29577;DHT22;16509;53.862;10.672;2023-08-06T04:14:54;15.80;99.90
29577;DHT22;16509;53.862;10.672;2023-08-06T04:17:20;16.50;99.90
29577;DHT22;16509;53.862;10.672;2023-08-06T04:19:52;16.50;99.90
29577;DHT22;16509;53.862;10.672;2023-08-06T04:22:18;17.30;99.90
29577;DHT22;16509;53.862;10.672;2023-08-06T04:24:44;17.30;99.90
29577;DHT22;16509;53.862;10.672;2023-08-06T04:27:10;15.80;99.90
29577;DHT22;16509;53.862;10.672;2023-08-06T04:29:36;17.60;99.90
29577;DHT22;16509;53.862;10.672;2023-08-06T04:32:03;15.60;99.90
29577;DHT22;16509;53.862;10.672;2023-08-06T04:34:29;15.90;99.90
29577;DHT22;16509;53.862;10.672;2023-08-06T04:36:55;17.30;99.90
29577;DHT22;16509;53.862;10.672;2023-08-06T04:39:20;15.80;99.90
29577;DHT22;16509;53.862;10.672;2023-08-06T04:41:46;16.30;99.90
29577;DHT22;16509;53.862;10.672;2023-08-06T04:44:11;15.70;99.90
29577;DHT22;16509;53.862;10.672;2023-08-06T04:46:37;17.60;99.90
29577;DHT22;16509;53.862;10.672;2023-08-06T04:49:02;17.30;99.90
29577;DHT22;16509;53.862;10.672;2023-08-06T04:51:28;16.40;99.90
29577;DHT22;16509;53.862;10.672;2023-08-06T04:53:53;15.70;99.90
29577;DHT22;16509;53.862;10.672;2023-08-06T04:56:19;16.60;99.90
29577;DHT22;16509;53.862;10.672;2023-08-06T04:58:44;16.70;99.90
29577;DHT22;16509;53.862;10.672;2023-08-06T05:01:10;17.40;99.90
29577;DHT22;16509;53.862;10.672;2023-08-06T05:03:35;15.80;99.90
29577;DHT22;16509;53.862;10.672;2023-08-06T05:06:01;16.20;99.90
29577;DHT22;16509;53.862;10.672;2023-08-06T05:08:26;16.30;99.90
29577;DHT22;16509;53.862;10.672;2023-08-06T05:10:52;17.70;99.90
29577;DHT22;16509;53.862;10.672;2023-08-06T05:13:17;16.50;99.90
29577;DHT22;16509;53.862;10.672;2023-08-06T05:15:43;15.80;99.90
29577;DHT22;16509;53.862;10.672;2023-08-06T05:18:10;17.30;99.90
29577;DHT22;16509;53.862;10.672;2023-08-06T05:20:37;16.10;99.90
29577;DHT22;16509;53.862;10.672;2023-08-06T05:23:03;16.20;99.90
29577;DHT22;16509;53.862;10.672;2023-08-06T05:25:29;16.10;99.90
29577;DHT22;16509;53.862;10.672;2023-08-06T05:27:55;16.50;99.90
29577;DHT22;16509;53.862;10.672;2023-08-06T05:30:20;15.80;99.90
29577;DHT22;16509;53.862;10.672;2023-08-06T05:32:46;16.20;99.90
29577;DHT22;16509;53.862;10.672;2023-08-06T05:35:11;17.10;99.90
29577;DHT22;16509;53.862;10.672;2023-08-06T05:37:37;18.50;99.90
29577;DHT22;16509;53.862;10.672;2023-08-06T05:40:02;16.50;99.90
29577;DHT22;16509;53.862;10.672;2023-08-06T05:42:29;16.20;99.90
29577;DHT22;16509;53.862;10.672;2023-08-06T05:44:55;17.50;99.90
29577;DHT22;16509;53.862;10.672;2023-08-06T05:47:20;17.20;99.90
29577;DHT22;16509;53.862;10.672;2023-08-06T05:49:46;16.20;99.90
29577;DHT22;16509;53.862;10.672;2023-08-06T05:52:11;16.30;99.90
29577;DHT22;16509;53.862;10.672;2023-08-06T05:54:37;16.70;99.90
29577;DHT22;16509;53.862;10.672;2023-08-06T05:57:03;16.10;99.90
29577;DHT22;16509;53.862;10.672;2023-08-06T05:59:28;16.20;99.90
29577;DHT22;16509;53.862;10.672;2023-08-06T06:01:54;16.00;99.90
29577;DHT22;16509;53.862;10.672;2023-08-06T06:04:20;16.80;99.90
29577;DHT22;16509;53.862;10.672;2023-08-06T06:06:45;16.10;99.90
29577;DHT22;16509;53.862;10.672;2023-08-06T06:09:11;16.60;99.90
29577;DHT22;16509;53.862;10.672;2023-08-06T06:11:36;16.00;99.90
29577;DHT22;16509;53.862;10.672;2023-08-06T06:14:02;18.00;99.90
29577;DHT22;16509;53.862;10.672;2023-08-06T06:16:27;17.90;99.90
29577;DHT22;16509;53.862;10.672;2023-08-06T06:18:53;18.80;99.90
29577;DHT22;16509;53.862;10.672;2023-08-06T06:21:20;18.00;99.90
29577;DHT22;16509;53.862;10.672;2023-08-06T06:23:45;16.30;99.90
29577;DHT22;16509;53.862;10.672;2023-08-06T06:26:11;16.70;99.90
29577;DHT22;16509;53.862;10.672;2023-08-06T06:28:36;16.30;99.90
29577;DHT22;16509;53.862;10.672;2023-08-06T06:31:02;16.50;99.90
29577;DHT22;16509;53.862;10.672;2023-08-06T06:33:28;17.70;99.90
29577;DHT22;16509;53.862;10.672;2023-08-06T06:35:54;18.10;99.90
29577;DHT22;16509;53.862;10.672;2023-08-06T06:38:19;18.30;99.90
29577;DHT22;16509;53.862;10.672;2023-08-06T06:40:54;17.30;99.90
29577;DHT22;16509;53.862;10.672;2023-08-06T06:43:19;18.20;99.90
29577;DHT22;16509;53.862;10.672;2023-08-06T06:45:45;16.40;99.90
29577;DHT22;16509;53.862;10.672;2023-08-06T06:48:10;17.10;99.90
29577;DHT22;16509;53.862;10.672;2023-08-06T06:50:36;17.80;99.90
29577;DHT22;16509;53.862;10.672;2023-08-06T06:53:01;18.10;99.90
29577;DHT22;16509;53.862;10.672;2023-08-06T06:55:27;16.50;99.90
29577;DHT22;16509;53.862;10.672;2023-08-06T06:57:53;16.50;99.90
29577;DHT22;16509;53.862;10.672;2023-08-06T07:00:18;17.80;99.90
29577;DHT22;16509;53.862;10.672;2023-08-06T07:02:44;17.10;99.90
29577;DHT22;16509;53.862;10.672;2023-08-06T07:05:09;18.00;99.90
29577;DHT22;16509;53.862;10.672;2023-08-06T07:07:35;18.80;99.90
29577;DHT22;16509;53.862;10.672;2023-08-06T07:10:02;17.30;99.90
29577;DHT22;16509;53.862;10.672;2023-08-06T07:12:27;17.20;99.90
29577;DHT22;16509;53.862;10.672;2023-08-06T07:14:53;17.20;99.90
29577;DHT22;16509;53.862;10.672;2023-08-06T07:17:18;18.30;99.90
29577;DHT22;16509;53.862;10.672;2023-08-06T07:19:44;17.00;99.90
29577;DHT22;16509;53.862;10.672;2023-08-06T07:22:09;17.90;99.90
29577;DHT22;16509;53.862;10.672;2023-08-06T07:24:35;17.20;99.90
29577;DHT22;16509;53.862;10.672;2023-08-06T07:27:00;17.50;99.90
29577;DHT22;16509;53.862;10.672;2023-08-06T07:29:26;17.60;99.90
29577;DHT22;16509;53.862;10.672;2023-08-06T07:31:52;17.70;99.90
29577;DHT22;16509;53.862;10.672;2023-08-06T07:34:17;17.60;99.90
29577;DHT22;16509;53.862;10.672;2023-08-06T07:36:44;18.00;99.90
29577;DHT22;16509;53.862;10.672;2023-08-06T07:39:10;19.10;99.90
29577;DHT22;16509;53.862;10.672;2023-08-06T07:41:36;17.60;99.90
29577;DHT22;16509;53.862;10.672;2023-08-06T07:44:01;19.00;99.90
29577;DHT22;16509;53.862;10.672;2023-08-06T07:46:27;18.60;99.90
29577;DHT22;16509;53.862;10.672;2023-08-06T07:48:52;20.30;99.90
29577;DHT22;16509;53.862;10.672;2023-08-06T07:51:18;18.10;99.90
29577;DHT22;16509;53.862;10.672;2023-08-06T07:53:44;18.20;99.90
29577;DHT22;16509;53.862;10.672;2023-08-06T07:56:10;18.10;99.90
29577;DHT22;16509;53.862;10.672;2023-08-06T07:58:36;20.00;99.90
29577;DHT22;16509;53.862;10.672;2023-08-06T08:01:01;18.20;99.90
29577;DHT22;16509;53.862;10.672;2023-08-06T08:03:27;18.20;99.90
29577;DHT22;16509;53.862;10.672;2023-08-06T08:05:54;19.30;99.90
29577;DHT22;16509;53.862;10.672;2023-08-06T08:08:23;19.40;99.90
29577;DHT22;16509;53.862;10.672;2023-08-06T08:10:49;18.20;99.90
29577;DHT22;16509;53.862;10.672;2023-08-06T08:13:14;19.20;99.90
29577;DHT22;16509;53.862;10.672;2023-08-06T08:15:40;19.60;99.90
29577;DHT22;16509;53.862;10.672;2023-08-06T08:18:05;19.40;99.90
29577;DHT22;16509;53.862;10.672;2023-08-06T08:20:31;18.90;99.90
29577;DHT22;16509;53.862;10.672;2023-08-06T08:23:00;19.90;99.90
29577;DHT22;16509;53.862;10.672;2023-08-06T08:25:27;19.10;99.90
29577;DHT22;16509;53.862;10.672;2023-08-06T08:27:54;19.90;99.90
29577;DHT22;16509;53.862;10.672;2023-08-06T08:30:20;19.20;99.90
29577;DHT22;16509;53.862;10.672;2023-08-06T08:32:45;19.30;99.90
29577;DHT22;16509;53.862;10.672;2023-08-06T08:35:11;20.40;99.90
29577;DHT22;16509;53.862;10.672;2023-08-06T08:37:38;18.40;99.90
29577;DHT22;16509;53.862;10.672;2023-08-06T08:40:06;19.50;99.90
29577;DHT22;16509;53.862;10.672;2023-08-06T08:42:32;18.60;99.90
29577;DHT22;16509;53.862;10.672;2023-08-06T08:44:57;20.40;99.90
29577;DHT22;16509;53.862;10.672;2023-08-06T08:47:24;19.60;99.90
29577;DHT22;16509;53.862;10.672;2023-08-06T08:49:53;19.30;99.90
29577;DHT22;16509;53.862;10.672;2023-08-06T08:52:21;18.80;99.90
29577;DHT22;16509;53.862;10.672;2023-08-06T08:54:47;19.50;99.90
29577;DHT22;16509;53.862;10.672;2023-08-06T08:57:17;18.90;99.90
29577;DHT22;16509;53.862;10.672;2023-08-06T08:59:42;19.20;99.90
29577;DHT22;16509;53.862;10.672;2023-08-06T09:02:10;20.60;99.90
29577;DHT22;16509;53.862;10.672;2023-08-06T09:04:36;20.00;99.90
29577;DHT22;16509;53.862;10.672;2023-08-06T09:07:04;20.20;99.90
29577;DHT22;16509;53.862;10.672;2023-08-06T09:09:34;20.40;99.90
29577;DHT22;16509;53.862;10.672;2023-08-06T09:12:02;20.40;99.90
29577;DHT22;16509;53.862;10.672;2023-08-06T09:14:30;19.60;99.90
29577;DHT22;16509;53.862;10.672;2023-08-06T09:16:56;19.70;99.90
29577;DHT22;16509;53.862;10.672;2023-08-06T09:19:22;20.00;99.90
29577;DHT22;16509;53.862;10.672;2023-08-06T09:21:51;20.50;99.90
29577;DHT22;16509;53.862;10.672;2023-08-06T09:24:17;20.00;99.90
29577;DHT22;16509;53.862;10.672;2023-08-06T09:26:44;21.10;99.90
29577;DHT22;16509;53.862;10.672;2023-08-06T09:29:11;21.00;99.90
29577;DHT22;16509;53.862;10.672;2023-08-06T09:31:43;20.60;99.90
29577;DHT22;16509;53.862;10.672;2023-08-06T09:34:16;19.90;99.90
29577;DHT22;16509;53.862;10.672;2023-08-06T09:36:42;20.70;99.90
29577;DHT22;16509;53.862;10.672;2023-08-06T09:39:15;22.30;99.90
29577;DHT22;16509;53.862;10.672;2023-08-06T09:41:42;20.00;99.90
29577;DHT22;16509;53.862;10.672;2023-08-06T09:44:21;20.90;99.90
29577;DHT22;16509;53.862;10.672;2023-08-06T09:46:49;20.10;99.90
29577;DHT22;16509;53.862;10.672;2023-08-06T09:49:15;20.90;99.90
29577;DHT22;16509;53.862;10.672;2023-08-06T09:51:41;20.20;99.90
29577;DHT22;16509;53.862;10.672;2023-08-06T09:54:07;21.60;99.90
29577;DHT22;16509;53.862;10.672;2023-08-06T09:56:34;20.30;99.90
29577;DHT22;16509;53.862;10.672;2023-08-06T09:59:04;19.70;99.90
29577;DHT22;16509;53.862;10.672;2023-08-06T10:01:33;20.80;99.90
29577;DHT22;16509;53.862;10.672;2023-08-06T10:04:00;21.30;99.90
29577;DHT22;16509;53.862;10.672;2023-08-06T10:06:26;20.00;99.90
29577;DHT22;16509;53.862;10.672;2023-08-06T10:08:53;19.70;99.90
29577;DHT22;16509;53.862;10.672;2023-08-06T10:11:22;20.40;99.90
29577;DHT22;16509;53.862;10.672;2023-08-06T10:13:50;20.60;99.90
29577;DHT22;16509;53.862;10.672;2023-08-06T10:16:18;20.10;99.90
29577;DHT22;16509;53.862;10.672;2023-08-06T10:18:43;20.20;99.90
29577;DHT22;16509;53.862;10.672;2023-08-06T10:21:09;21.30;99.90
29577;DHT22;16509;53.862;10.672;2023-08-06T10:23:36;21.20;99.90
29577;DHT22;16509;53.862;10.672;2023-08-06T10:26:03;20.10;99.90
29577;DHT22;16509;53.862;10.672;2023-08-06T10:28:39;21.50;99.90
29577;DHT22;16509;53.862;10.672;2023-08-06T10:31:05;20.20;99.90
29577;DHT22;16509;53.862;10.672;2023-08-06T10:33:41;20.20;99.90
29577;DHT22;16509;53.862;10.672;2023-08-06T10:36:09;19.90;99.90
29577;DHT22;16509;53.862;10.672;2023-08-06T10:38:36;21.00;99.90
29577;DHT22;16509;53.862;10.672;2023-08-06T10:41:15;20.20;99.90
29577;DHT22;16509;53.862;10.672;2023-08-06T10:43:41;20.80;99.90
29577;DHT22;16509;53.862;10.672;2023-08-06T10:46:22;20.70;99.90
29577;DHT22;16509;53.862;10.672;2023-08-06T10:48:47;20.80;99.90
29577;DHT22;16509;53.862;10.672;2023-08-06T10:51:14;20.90;99.90
29577;DHT22;16509;53.862;10.672;2023-08-06T10:53:47;21.30;99.90
29577;DHT22;16509;53.862;10.672;2023-08-06T10:56:14;20.40;99.90
29577;DHT22;16509;53.862;10.672;2023-08-06T10:58:41;20.50;99.90
29577;DHT22;16509;53.862;10.672;2023-08-06T11:01:06;20.90;99.90
29577;DHT22;16509;53.862;10.672;2023-08-06T11:03:33;21.40;99.90
29577;DHT22;16509;53.862;10.672;2023-08-06T11:05:59;21.40;99.90
29577;DHT22;16509;53.862;10.672;2023-08-06T11:08:29;21.20;99.90
29577;DHT22;16509;53.862;10.672;2023-08-06T11:10:55;20.80;99.90
29577;DHT22;16509;53.862;10.672;2023-08-06T11:13:21;22.40;99.90
29577;DHT22;16509;53.862;10.672;2023-08-06T11:15:47;21.20;99.90
29577;DHT22;16509;53.862;10.672;2023-08-06T11:18:12;21.30;99.90
29577;DHT22;16509;53.862;10.672;2023-08-06T11:20:38;21.80;99.90
29577;DHT22;16509;53.862;10.672;2023-08-06T11:23:05;21.90;99.90
29577;DHT22;16509;53.862;10.672;2023-08-06T11:25:30;22.00;99.90
29577;DHT22;16509;53.862;10.672;2023-08-06T11:27:56;21.30;99.90
29577;DHT22;16509;53.862;10.672;2023-08-06T11:30:21;21.70;99.90
29577;DHT22;16509;53.862;10.672;2023-08-06T11:32:48;20.90;99.90
29577;DHT22;16509;53.862;10.672;2023-08-06T11:35:14;21.10;99.90
29577;DHT22;16509;53.862;10.672;2023-08-06T11:37:46;20.80;99.90
29577;DHT22;16509;53.862;10.672;2023-08-06T11:40:15;20.70;99.90
29577;DHT22;16509;53.862;10.672;2023-08-06T11:42:40;21.10;99.90
29577;DHT22;16509;53.862;10.672;2023-08-06T11:45:08;21.30;99.90
29577;DHT22;16509;53.862;10.672;2023-08-06T11:47:38;20.80;99.90
29577;DHT22;16509;53.862;10.672;2023-08-06T11:50:07;20.90;99.90
29577;DHT22;16509;53.862;10.672;2023-08-06T11:52:33;20.80;99.90
29577;DHT22;16509;53.862;10.672;2023-08-06T11:55:09;21.20;99.90
29577;DHT22;16509;53.862;10.672;2023-08-06T11:57:44;21.50;99.90
29577;DHT22;16509;53.862;10.672;2023-08-06T12:00:11;21.30;99.90
29577;DHT22;16509;53.862;10.672;2023-08-06T12:02:42;20.70;99.90
29577;DHT22;16509;53.862;10.672;2023-08-06T12:07:45;20.60;99.90
29577;DHT22;16509;53.862;10.672;2023-08-06T12:10:15;21.30;99.90
29577;DHT22;16509;53.862;10.672;2023-08-06T12:12:41;21.20;99.90
29577;DHT22;16509;53.862;10.672;2023-08-06T12:15:08;20.60;99.90
29577;DHT22;16509;53.862;10.672;2023-08-06T12:17:34;20.40;99.90
29577;DHT22;16509;53.862;10.672;2023-08-06T12:20:00;20.60;99.90
29577;DHT22;16509;53.862;10.672;2023-08-06T12:22:25;21.10;99.90
29577;DHT22;16509;53.862;10.672;2023-08-06T12:24:51;20.60;99.90
29577;DHT22;16509;53.862;10.672;2023-08-06T12:27:17;21.20;99.90
29577;DHT22;16509;53.862;10.672;2023-08-06T12:29:44;21.20;99.90
29577;DHT22;16509;53.862;10.672;2023-08-06T12:32:10;21.10;99.90
29577;DHT22;16509;53.862;10.672;2023-08-06T12:34:38;20.50;99.90
29577;DHT22;16509;53.862;10.672;2023-08-06T12:37:04;21.70;99.90
29577;DHT22;16509;53.862;10.672;2023-08-06T12:39:30;21.00;99.90
29577;DHT22;16509;53.862;10.672;2023-08-06T12:41:56;21.30;99.90
29577;DHT22;16509;53.862;10.672;2023-08-06T12:44:23;21.60;99.90
29577;DHT22;16509;53.862;10.672;2023-08-06T12:46:50;20.60;99.90
29577;DHT22;16509;53.862;10.672;2023-08-06T12:49:16;20.70;99.90
29577;DHT22;16509;53.862;10.672;2023-08-06T12:51:42;21.60;99.90
29577;DHT22;16509;53.862;10.672;2023-08-06T12:54:07;21.20;99.90
29577;DHT22;16509;53.862;10.672;2023-08-06T12:56:34;22.10;99.90
29577;DHT22;16509;53.862;10.672;2023-08-06T12:59:01;20.80;99.90
29577;DHT22;16509;53.862;10.672;2023-08-06T13:01:26;20.70;99.90
29577;DHT22;16509;53.862;10.672;2023-08-06T13:03:52;20.90;99.90
29577;DHT22;16509;53.862;10.672;2023-08-06T13:06:17;20.60;99.90
29577;DHT22;16509;53.862;10.672;2023-08-06T13:08:43;21.20;99.90
29577;DHT22;16509;53.862;10.672;2023-08-06T13:11:09;20.80;99.90
29577;DHT22;16509;53.862;10.672;2023-08-06T13:13:34;21.20;99.90
29577;DHT22;16509;53.862;10.672;2023-08-06T13:16:00;20.70;99.90
29577;DHT22;16509;53.862;10.672;2023-08-06T13:18:25;21.20;99.90
29577;DHT22;16509;53.862;10.672;2023-08-06T13:20:53;20.70;99.90
29577;DHT22;16509;53.862;10.672;2023-08-06T13:23:19;20.40;99.90
29577;DHT22;16509;53.862;10.672;2023-08-06T13:25:45;20.90;99.90
29577;DHT22;16509;53.862;10.672;2023-08-06T13:28:11;20.50;99.90
29577;DHT22;16509;53.862;10.672;2023-08-06T13:30:37;20.60;99.90
29577;DHT22;16509;53.862;10.672;2023-08-06T13:33:07;20.70;99.90
29577;DHT22;16509;53.862;10.672;2023-08-06T13:35:33;20.40;99.90
29577;DHT22;16509;53.862;10.672;2023-08-06T13:37:58;20.60;99.90
29577;DHT22;16509;53.862;10.672;2023-08-06T13:40:24;21.00;99.90
29577;DHT22;16509;53.862;10.672;2023-08-06T13:42:50;20.80;99.90
29577;DHT22;16509;53.862;10.672;2023-08-06T13:45:15;21.70;99.90
29577;DHT22;16509;53.862;10.672;2023-08-06T13:47:41;21.80;99.90
29577;DHT22;16509;53.862;10.672;2023-08-06T13:50:07;22.20;99.90
29577;DHT22;16509;53.862;10.672;2023-08-06T13:52:33;20.50;99.90
29577;DHT22;16509;53.862;10.672;2023-08-06T13:55:00;21.00;99.90
29577;DHT22;16509;53.862;10.672;2023-08-06T13:57:26;21.00;99.90
29577;DHT22;16509;53.862;10.672;2023-08-06T13:59:51;20.60;99.90
29577;DHT22;16509;53.862;10.672;2023-08-06T14:02:17;21.30;99.90
29577;DHT22;16509;53.862;10.672;2023-08-06T14:04:42;22.20;99.90
29577;DHT22;16509;53.862;10.672;2023-08-06T14:07:08;20.70;99.90
29577;DHT22;16509;53.862;10.672;2023-08-06T14:09:33;20.30;99.90
29577;DHT22;16509;53.862;10.672;2023-08-06T14:12:00;19.80;99.90
29577;DHT22;16509;53.862;10.672;2023-08-06T14:14:25;20.80;99.90
29577;DHT22;16509;53.862;10.672;2023-08-06T14:16:53;20.70;99.90
29577;DHT22;16509;53.862;10.672;2023-08-06T14:19:19;21.30;99.90
29577;DHT22;16509;53.862;10.672;2023-08-06T14:21:45;20.80;99.90
29577;DHT22;16509;53.862;10.672;2023-08-06T14:24:10;21.20;99.90
29577;DHT22;16509;53.862;10.672;2023-08-06T14:26:36;20.50;99.90
29577;DHT22;16509;53.862;10.672;2023-08-06T14:29:02;21.20;99.90
29577;DHT22;16509;53.862;10.672;2023-08-06T14:31:28;21.00;99.90
29577;DHT22;16509;53.862;10.672;2023-08-06T14:33:53;20.40;99.90
29577;DHT22;16509;53.862;10.672;2023-08-06T14:36:19;20.60;99.90
29577;DHT22;16509;53.862;10.672;2023-08-06T14:38:45;20.70;99.90
29577;DHT22;16509;53.862;10.672;2023-08-06T14:41:10;21.50;99.90
29577;DHT22;16509;53.862;10.672;2023-08-06T14:43:36;20.30;99.90
29577;DHT22;16509;53.862;10.672;2023-08-06T14:46:02;20.90;99.90
29577;DHT22;16509;53.862;10.672;2023-08-06T14:48:29;21.20;99.90
29577;DHT22;16509;53.862;10.672;2023-08-06T14:50:54;21.10;99.90
29577;DHT22;16509;53.862;10.672;2023-08-06T14:53:20;20.90;99.90
29577;DHT22;16509;53.862;10.672;2023-08-06T14:55:46;20.80;99.90
29577;DHT22;16509;53.862;10.672;2023-08-06T14:58:11;20.60;99.90
29577;DHT22;16509;53.862;10.672;2023-08-06T15:00:37;21.20;99.90
29577;DHT22;16509;53.862;10.672;2023-08-06T15:03:02;20.90;99.90
29577;DHT22;16509;53.862;10.672;2023-08-06T15:05:28;21.40;99.90
29577;DHT22;16509;53.862;10.672;2023-08-06T15:07:53;20.40;99.90
29577;DHT22;16509;53.862;10.672;2023-08-06T15:10:19;20.80;99.90
29577;DHT22;16509;53.862;10.672;2023-08-06T15:12:45;20.10;99.90
29577;DHT22;16509;53.862;10.672;2023-08-06T15:15:10;20.80;99.90
29577;DHT22;16509;53.862;10.672;2023-08-06T15:17:36;20.90;99.90
29577;DHT22;16509;53.862;10.672;2023-08-06T15:20:02;21.50;99.90
29577;DHT22;16509;53.862;10.672;2023-08-06T15:22:28;20.10;99.90
29577;DHT22;16509;53.862;10.672;2023-08-06T15:24:57;21.50;99.90